Time;durP1;ratioP1;P1;durP2;ratioP2;P2;SDS_P1;SDS_P2;PMS_P1;PMS_P2;Temp;Humidity;BMP_temperature;BMP_pressure;BME280_temperature;BME280_humidity;BME280_pressure;Samples;Min_cycle;Max_cycle;Signal;HPM_P1;HPM_P2
2022/05/14 00:04:34;;;;;;;13.93;3.78;;;;;;;;;;10447583;28;20477;-66
2022/05/14 00:09:36;;;;;;;14.32;3.35;;;;;;;;;;10421688;28;20122;-67
2022/05/14 00:14:37;;;;;;;12.02;3.20;;;;;;;;;;10418113;28;20056;-66
2022/05/14 00:19:38;;;;;;;18.98;3.90;;;;;;;;;;10429216;28;20045;-66
2022/05/14 00:24:40;;;;;;;11.90;3.67;;;;;;;;;;10439356;28;20052;-67
2022/05/14 00:29:41;;;;;;;13.50;3.50;;;;;;;;;;10443534;28;20041;-67
2022/05/14 00:34:43;;;;;;;16.45;3.17;;;;;;;;;;10440319;28;20052;-66
2022/05/14 00:39:44;;;;;;;11.32;3.50;;;;;;;;;;10432389;28;20136;-66
2022/05/14 00:44:45;;;;;;;16.80;3.30;;;;;;;;;;10413949;28;20428;-67
2022/05/14 00:49:47;;;;;;;12.63;3.33;;;;;;;;;;10432292;28;20072;-66
2022/05/14 00:55:03;;;;;;;11.82;3.17;;;;;;;;;;10425679;28;20052;-66
2022/05/14 01:00:07;;;;;;;9.45;2.85;;;;;;;;;;10415030;28;20049;-67
2022/05/14 01:05:10;;;;;;;11.23;3.08;;;;;;;;;;10414362;28;20049;-66
2022/05/14 01:10:13;;;;;;;13.82;3.33;;;;;;;;;;10413135;28;20060;-66
2022/05/14 01:15:20;;;;;;;10.52;3.25;;;;;;;;;;10413498;28;20086;-66
2022/05/14 01:20:23;;;;;;;12.32;3.40;;;;;;;;;;10399376;28;20041;-66
2022/05/14 01:30:59;;;;;;;12.57;3.97;;;;;;;;;;10406304;28;20051;-66
2022/05/14 01:36:06;;;;;;;13.27;3.30;;;;;;;;;;10417276;28;20091;-66
2022/05/14 01:41:09;;;;;;;9.65;3.03;;;;;;;;;;10416847;28;20037;-66
2022/05/14 01:46:11;;;;;;;15.48;3.70;;;;;;;;;;10424746;28;20152;-66
2022/05/14 01:51:13;;;;;;;11.88;3.47;;;;;;;;;;10418626;28;20558;-67
2022/05/14 01:56:14;;;;;;;14.27;3.80;;;;;;;;;;10435682;28;20045;-66
2022/05/14 02:01:18;;;;;;;17.90;3.85;;;;;;;;;;10427060;28;20140;-66
2022/05/14 02:06:21;;;;;;;9.70;3.17;;;;;;;;;;10419913;28;20420;-66
2022/05/14 02:11:23;;;;;;;12.30;3.55;;;;;;;;;;10416289;28;20049;-67
2022/05/14 02:16:31;;;;;;;13.73;4.00;;;;;;;;;;10426509;28;20041;-66
2022/05/14 02:21:34;;;;;;;14.95;4.13;;;;;;;10.26;nan;99680.88;10419481;28;20673;-67
2022/05/14 02:26:35;;;;;;;13.98;4.50;;;;;;;10.21;nan;99660.84;10426718;28;20048;-67
2022/05/14 02:31:38;;;;;;;10.68;4.07;;;;;;;10.19;nan;99662.56;10430444;28;20551;-66
2022/05/14 02:36:40;;;;;;;13.75;4.40;;;;;;;10.13;nan;99647.75;10426410;28;20125;-67
2022/05/14 02:41:42;;;;;;;12.27;3.67;;;;;;;10.13;nan;99641.66;10427035;28;20076;-66
2022/05/14 02:46:44;;;;;;;13.63;3.83;;;;;;;10.05;nan;99616.34;10438206;28;20045;-66
2022/05/14 02:51:47;;;;;;;12.45;4.10;;;;;;;10.09;nan;99633.78;10424895;28;20525;-66
2022/05/14 02:56:48;;;;;;;13.95;3.97;;;;;;;10.11;nan;99646.00;10419082;28;20049;-67
2022/05/14 03:01:50;;;;;;;15.35;3.97;;;;;;;10.15;nan;99666.94;10447684;28;20028;-66
2022/05/14 03:06:56;;;;;;;14.48;3.53;;;;;;;10.21;nan;99697.47;10442871;28;20056;-67
2022/05/14 03:11:58;;;;;;;16.35;4.03;;;;;;;10.26;nan;99717.50;10435887;28;20393;-67
2022/05/14 03:17:00;;;;;;;17.42;3.92;;;;;;;10.34;nan;99751.56;10416420;28;20626;-66
2022/05/14 03:22:02;;;;;;;12.88;4.47;;;;;;;;;;10412483;28;20069;-66
2022/05/14 03:27:06;;;;;;;14.80;4.00;;;;;;;;;;10442075;28;20045;-67
2022/05/14 03:32:08;;;;;;;11.52;3.92;;;;;;;;;;10420416;28;20281;-66
2022/05/14 03:37:09;;;;;;;17.15;4.18;;;;;;;;;;10421926;28;20159;-67
2022/05/14 03:42:11;;;;;;;16.17;4.57;;;;;;;;;;10418759;28;20045;-66
2022/05/14 03:47:12;;;;;;;17.15;4.25;;;;;;;;;;10435536;28;20048;-67
2022/05/14 03:52:14;;;;;;;15.77;3.55;;;;;;;;;;10441518;28;20124;-66
2022/05/14 03:57:15;;;;;;;21.58;5.15;;;;;;;;;;10429687;28;20041;-65
2022/05/14 04:02:17;;;;;;;16.95;4.80;;;;;;;;;;10450950;28;20044;-66
2022/05/14 04:07:19;;;;;;;17.75;5.63;;;;;;;;;;10403968;28;20389;-66
2022/05/14 04:12:21;;;;;;;14.73;3.80;;;;;;;;;;10432696;28;20044;-66
2022/05/14 04:17:23;;;;;;;23.67;5.15;;;;;;;;;;10410287;28;20419;-66
2022/05/14 04:22:28;;;;;;;16.20;4.45;;;;;;;;;;10422037;28;20481;-66
2022/05/14 04:27:29;;;;;;;15.57;4.15;;;;;;;;;;10422771;28;20139;-67
2022/05/14 04:32:30;;;;;;;17.00;4.40;;;;;;;;;;10430242;28;20378;-66
2022/05/14 04:37:33;;;;;;;24.98;5.07;;;;;;;;;;10434645;28;20045;-66
2022/05/14 04:42:38;;;;;;;16.95;5.30;;;;;;;;;;10414328;28;20395;-66
2022/05/14 04:47:41;;;;;;;13.73;4.35;;;;;;;;;;10425692;28;20133;-66
2022/05/14 04:52:43;;;;;;;17.13;5.22;;;;;;;;;;10394319;28;20128;-66
2022/05/14 04:57:46;;;;;;;15.93;5.32;;;;;;;;;;10413935;28;20069;-67
2022/05/14 05:08:09;;;;;;;24.80;5.70;;;;;;;;;;10438619;28;20052;-66
2022/05/14 05:13:15;;;;;;;19.33;5.20;;;;;;;;;;10407133;28;20099;-66
2022/05/14 05:18:17;;;;;;;18.98;5.97;;;;;;;;;;10431957;28;20409;-66
2022/05/14 05:23:20;;;;;;;26.33;5.28;;;;;;;;;;10431483;28;20140;-66
2022/05/14 05:28:22;;;;;;;22.38;5.47;;;;;;;;;;10425295;28;20049;-66
2022/05/14 05:33:25;;;;;;;20.90;6.55;;;;;;;;;;10435131;28;20041;-66
2022/05/14 05:38:26;;;;;;;20.35;6.13;;;;;;;;;;10431509;28;20296;-66
2022/05/14 05:43:27;;;;;;;21.25;5.65;;;;;;;12.22;nan;100607.72;10437142;28;20041;-66
2022/05/14 05:48:29;;;;;;;22.25;6.72;;;;;;;12.32;nan;100656.81;10425807;28;20057;-67
2022/05/14 05:58:51;;;;;;;21.55;5.90;;;;;;;12.67;nan;100798.03;10432043;28;20555;-67
2022/05/14 06:03:53;;;;;;;22.17;5.80;;;;;;;12.81;nan;100864.72;10423346;28;20080;-67
2022/05/14 06:08:55;;;;;;;26.40;5.68;;;;;;;13.05;nan;100974.47;10436714;28;20443;-67
2022/05/14 06:13:56;;;;;;;27.75;5.60;;;;;;;13.24;nan;101043.91;10431343;28;20041;-67
2022/05/14 06:18:58;;;;;;;17.88;5.28;;;;;;;13.41;nan;101119.50;10437658;28;20079;-67
2022/05/14 06:24:00;;;;;;;27.30;5.00;;;;;;;13.62;nan;101216.19;10430206;28;20037;-67
2022/05/14 06:29:02;;;;;;;26.73;5.47;;;;;;;14.23;nan;101471.41;10422446;28;20142;-66
2022/05/14 06:34:03;;;;;;;22.02;4.72;;;;;;;14.26;nan;101486.34;10411912;28;20049;-66
2022/05/14 06:39:05;;;;;;;27.58;4.88;;;;;;;14.75;nan;101687.34;10410566;28;20072;-67
2022/05/14 06:44:07;;;;;;;26.67;5.55;;;;;;;15.36;nan;101947.63;10434593;28;20045;-66
2022/05/14 06:49:09;;;;;;;27.05;4.80;;;;;;;16.11;nan;102264.00;10423218;28;20059;-67
2022/05/14 06:54:11;;;;;;;20.27;5.03;;;;;;;16.42;nan;102402.88;10423569;28;20040;-67
2022/05/14 06:59:16;;;;;;;19.80;4.47;;;;;;;16.64;nan;102502.03;10437456;28;20045;-67
2022/05/14 07:09:39;;;;;;;19.80;4.55;;;;;;;16.38;nan;102391.38;10417447;28;20080;-66
2022/05/14 07:14:44;;;;;;;21.08;5.82;;;;;;;16.24;nan;102327.69;10441395;28;20420;-66
2022/05/14 07:19:46;;;;;;;26.02;4.53;;;;;;;16.25;nan;102336.50;10412805;28;20070;-66
2022/05/14 07:24:48;;;;;;;20.75;4.72;;;;;;;17.34;nan;102794.53;10426156;28;20425;-66
2022/05/14 07:29:50;;;;;;;22.38;4.55;;;;;;;18.33;nan;103224.28;10415523;28;20049;-67
2022/05/14 07:34:51;;;;;;;25.60;5.18;;;;;;;18.94;nan;103489.38;10434896;28;20049;-67
2022/05/14 07:39:58;;;;;;;14.85;4.50;;;;;;;19.28;nan;103642.53;10442494;28;20056;-66
2022/05/14 07:45:02;;;;;;;18.25;3.97;;;;;;;19.81;nan;103872.50;10429792;28;20424;-66
2022/05/14 07:50:05;;;;;;;21.63;3.97;;;;;;;19.95;nan;103933.19;10437754;28;20636;-67
2022/05/14 07:55:09;;;;;;;18.33;4.18;;;;;;;19.94;nan;103923.41;10413390;28;20454;-67
2022/05/14 08:00:12;;;;;;;20.33;3.97;;;;;;;20.19;nan;104030.50;10423925;28;20494;-68
2022/05/14 08:05:15;;;;;;;18.77;3.85;;;;;;;20.45;nan;104134.13;10401445;28;20560;-67
2022/05/14 08:10:17;;;;;;;17.83;3.92;;;;;;;20.88;nan;104316.47;10411575;28;20425;-67
2022/05/14 08:15:21;;;;;;;18.73;3.97;;;;;;;21.22;nan;104465.81;10420767;28;20045;-66
2022/05/14 08:20:24;;;;;;;15.77;3.65;;;;;;;21.10;nan;104405.03;10432345;28;20056;-67
2022/05/14 08:25:26;;;;;;;15.02;3.30;;;;;;;20.74;nan;104230.84;10438256;28;20041;-67
2022/05/14 08:30:31;;;;;;;16.40;3.85;;;;;;;21.22;nan;104437.38;10447966;28;20590;-67
2022/05/14 08:35:33;;;;;;;16.63;3.42;;;;;;;20.80;nan;104241.66;10439080;28;20124;-67
2022/05/14 08:40:41;;;;;;;14.35;3.10;;;;;;;20.59;nan;104132.75;10432883;28;20575;-66
2022/05/14 08:45:43;;;;;;;12.88;2.72;;;;;;;19.67;nan;103715.28;10420887;28;20400;-67
2022/05/14 08:50:54;;;;;;;16.25;3.50;;;;;;;20.43;nan;104040.03;10432083;28;20144;-68
2022/05/14 08:56:24;;;;;;;12.68;2.80;;;;;;;20.93;nan;104255.38;10423755;28;20037;-66
2022/05/14 09:01:33;;;;;;;12.80;3.40;;;;;;;20.88;nan;104223.25;10431745;28;20524;-66
2022/05/14 09:06:36;;;;;;;17.38;3.20;;;;;;;20.85;nan;104193.88;10436616;28;20107;-67
2022/05/14 09:11:51;;;;;;;16.35;3.63;;;;;;;21.07;nan;104280.63;10423792;28;20381;-67
2022/05/14 09:17:20;;;;;;;15.30;2.90;;;;;;;20.98;nan;104229.75;10427314;28;20122;-67
2022/05/14 09:22:22;;;;;;;17.03;3.30;;;;;;;20.66;nan;104084.19;10416925;28;20049;-66
2022/05/14 09:27:43;;;;;;;14.35;3.22;;;;;;;20.39;nan;103951.22;10418778;28;20535;-66
2022/05/14 09:32:45;;;;;;;13.75;3.20;;;;;;;20.70;nan;104079.81;10430754;28;20064;-66
2022/05/14 09:37:47;;;;;;;16.45;3.30;;;;;;;20.72;nan;104074.56;10438847;28;20060;-66
2022/05/14 09:42:55;;;;;;;16.42;3.40;;;;;;;20.33;nan;103899.59;10431265;28;20060;-67
2022/05/14 09:48:08;;;;;;;16.60;3.47;;;;;;;19.70;nan;103607.25;10418164;28;20072;-66
2022/05/14 09:53:10;;;;;;;18.75;3.70;;;;;;;21.09;nan;104203.41;10430716;28;20068;-66
2022/05/14 09:58:28;;;;;;;15.88;3.50;;;;;;;21.40;nan;104333.06;10431165;28;20393;-66
2022/05/14 10:03:41;;;;;;;17.08;3.40;;;;;;;20.79;nan;104066.78;10420851;28;20310;-67
2022/05/14 10:08:55;;;;;;;13.82;3.90;;;;;;;19.84;nan;103639.50;10419527;28;20072;-67
2022/05/14 10:14:10;;;;;;;20.45;4.00;;;;;;;21.24;nan;104230.44;10425771;28;20077;-67
2022/05/14 10:19:27;;;;;;;17.95;3.63;;;;;;;20.39;nan;103859.84;10424058;28;20429;-66
2022/05/14 10:30:09;;;;;;;15.82;3.42;;;;;;;20.66;nan;103955.50;10432040;28;20067;-67
2022/05/14 10:35:24;;;;;;;16.00;3.95;;;;;;;21.27;nan;104211.91;10430100;28;20602;-66
2022/05/14 10:40:30;;;;;;;16.23;4.03;;;;;;;21.13;nan;104141.34;10444230;28;20049;-67
2022/05/14 10:45:43;;;;;;;19.15;3.63;;;;;;;21.58;nan;104321.16;10433159;28;20129;-66
2022/05/14 10:50:45;;;;;;;14.18;3.08;;;;;;;20.98;nan;104054.81;10430605;28;20045;-66
2022/05/14 10:55:59;;;;;;;15.68;3.45;;;;;;;20.21;nan;103725.50;10424277;28;20501;-66
2022/05/14 11:01:05;;;;;;;21.30;4.00;;;;;;;20.68;nan;103907.59;10432908;28;20409;-66
2022/05/14 11:06:11;;;;;;;18.38;3.38;;;;;;;21.81;nan;104388.44;10441561;28;20041;-66
2022/05/14 11:11:23;;;;;;;16.80;3.35;;;;;;;21.55;nan;104268.63;10422934;28;20052;-67
2022/05/14 11:16:40;;;;;;;16.60;3.72;;;;;;;20.75;nan;103914.88;10431005;28;20102;-66
2022/05/14 11:21:47;;;;;;;15.40;3.47;;;;;;;20.63;nan;103854.22;10417372;28;20094;-67
2022/05/14 11:26:52;;;;;;;14.02;3.45;;;;;;;20.57;nan;103822.13;10437209;28;20049;-66
2022/05/14 11:32:11;;;;;;;14.82;3.35;;;;;;;21.60;nan;104256.31;10438790;28;20076;-67
2022/05/14 11:37:27;;;;;;;15.93;3.65;;;;;;;21.31;nan;104122.25;10429539;28;20515;-66
2022/05/14 11:42:30;;;;;;;19.75;3.58;;;;;;;21.13;nan;104032.09;10427908;28;20069;-67
2022/05/14 11:47:32;;;;;;;15.20;3.70;;;;;;;21.42;nan;104157.19;10422013;28;20041;-67
2022/05/14 11:52:46;;;;;;;19.83;4.15;;;;;;;21.20;nan;104050.06;10415281;28;20099;-67
2022/05/14 11:57:58;;;;;;;15.10;3.45;;;;;;;21.24;nan;104053.69;10424006;28;20041;-67
2022/05/14 12:03:18;;;;;;;22.30;4.70;;;;;;;20.56;nan;103760.00;10453619;28;20048;-66
2022/05/14 12:08:31;;;;;;;17.23;3.53;;;;;;;21.46;nan;104135.06;10427169;28;20126;-66
2022/05/14 12:13:41;;;;;;;18.17;3.60;;;;;;;21.30;nan;104059.16;10427530;28;20075;-67
2022/05/14 12:18:44;;;;;;;20.38;3.67;;;;;;;21.12;nan;103974.34;10440324;28;20045;-67
2022/05/14 12:23:48;;;;;;;12.63;3.30;;;;;;;21.23;nan;104012.81;10420185;28;20087;-67
2022/05/14 12:28:52;;;;;;;20.10;4.00;;;;;;;22.18;nan;104413.44;10427109;28;20394;-67
2022/05/14 12:33:58;;;;;;;17.10;3.13;;;;;;;;;;10445634;28;20051;-66
2022/05/14 12:39:02;;;;;;;19.35;4.45;;;;;;;;;;10435541;28;20074;-66
2022/05/14 12:44:13;;;;;;;13.98;3.17;;;;;;;21.22;nan;103979.03;10426057;28;20160;-66
2022/05/14 12:49:18;;;;;;;14.43;3.25;;;;;;;20.80;nan;103788.06;10421124;28;20076;-67
2022/05/14 12:54:24;;;;;;;19.25;4.30;;;;;;;21.25;nan;103981.75;10425163;28;20540;-66
2022/05/14 12:59:27;;;;;;;16.73;3.00;;;;;;;22.09;nan;104333.16;10419760;28;20408;-66
2022/05/14 13:04:42;;;;;;;15.05;3.08;;;;;;;22.07;nan;104310.00;10428556;28;20045;-66
2022/05/14 13:09:44;;;;;;;19.35;4.05;;;;;;;22.51;nan;104490.84;10423585;28;20296;-66
2022/05/14 13:14:56;;;;;;;16.92;3.60;;;;;;;22.43;nan;104449.72;10417620;28;20064;-67
2022/05/14 13:19:59;;;;;;;19.17;4.22;;;;;;;21.76;nan;104156.28;10437501;28;20068;-67
2022/05/14 13:25:23;;;;;;;14.35;3.67;;;;;;;22.19;nan;104335.19;10433817;28;20049;-67
2022/05/14 13:30:33;;;;;;;11.07;2.92;;;;;;;22.41;nan;104414.97;10437842;28;21067;-67
2022/05/14 13:41:00;;;;;;;14.75;3.75;;;;;;;22.57;nan;104472.31;10424563;28;20212;-67
2022/05/14 13:46:03;;;;;;;16.95;3.28;;;;;;;22.85;nan;104573.63;10424052;28;20068;-67
2022/05/14 13:51:12;;;;;;;13.23;2.92;;;;;;;22.80;nan;104540.56;10431934;28;20064;-67
2022/05/14 13:56:20;;;;;;;15.02;3.50;;;;;;;22.03;nan;104214.69;10406918;28;20678;-66
2022/05/14 14:01:37;;;;;;;18.05;3.65;;;;;;;21.83;nan;104114.66;10442905;28;20048;-66
2022/05/14 14:06:39;;;;;;;16.48;3.40;;;;;;;21.93;nan;104156.66;10434608;28;20045;-67
2022/05/14 14:11:44;;;;;;;15.15;3.30;;;;;;;22.04;nan;104194.28;10445291;28;20052;-67
2022/05/14 14:16:46;;;;;;;17.23;2.85;;;;;;;22.55;nan;104390.38;10431999;28;20044;-67
2022/05/14 14:21:49;;;;;;;13.40;2.60;;;;;;;22.89;nan;104535.44;10437488;28;20162;-67
2022/05/14 14:26:51;;;;;;;17.67;3.63;;;;;;;22.21;nan;104240.91;10425186;28;20106;-67
2022/05/14 14:31:53;;;;;;;11.43;2.90;;;;;;;22.11;nan;104179.28;10444342;28;20518;-66
2022/05/14 14:36:54;;;;;;;15.70;3.05;;;;;;;21.81;nan;104053.28;10435499;28;20361;-67
2022/05/14 14:41:56;;;;;;;13.90;3.95;;;;;;;22.15;nan;104183.84;10445448;28;20052;-67
2022/05/14 14:46:58;;;;;;;19.70;4.13;;;;;;;22.24;nan;104213.41;10445062;28;20045;-67
2022/05/14 14:52:00;;;;;;;14.15;3.30;;;;;;;21.55;nan;103924.69;10443536;28;20865;-67
2022/05/14 14:57:02;;;;;;;13.95;3.83;;;;;;;21.77;nan;104013.13;10437708;28;20044;-67
2022/05/14 15:02:10;;;;;;;16.95;4.00;;;;;;;21.75;nan;103994.44;10445378;28;20055;-67
2022/05/14 15:07:16;;;;;;;17.33;3.83;;;;;;;21.62;nan;103929.31;10426026;28;20041;-66
2022/05/14 15:12:24;;;;;;;16.02;3.33;;;;;;;21.85;nan;104016.88;10439635;28;20080;-67
2022/05/14 15:17:27;;;;;;;11.30;2.95;;;;;;;22.10;nan;104119.69;10437645;28;20075;-67
2022/05/14 15:22:28;;;;;;;14.07;3.05;;;;;;;22.16;nan;104135.84;10436795;28;20041;-66
2022/05/14 15:27:31;;;;;;;14.43;3.08;;;;;;;22.08;nan;104097.41;10441197;28;20046;-67
2022/05/14 15:32:32;;;;;;;18.02;3.58;;;;;;;22.04;nan;104077.75;10462161;28;20045;-68
2022/05/14 15:37:34;;;;;;;14.15;3.05;;;;;;;22.17;nan;104120.72;10423010;28;20045;-67
2022/05/14 15:42:40;;;;;;;10.98;3.20;;;;;;;22.40;nan;104207.56;10432975;28;20075;-67
2022/05/14 15:47:45;;;;;;;16.48;3.28;;;;;;;22.12;nan;104085.03;10436911;28;20130;-67
2022/05/14 15:52:48;;;;;;;19.30;3.22;;;;;;;22.30;nan;104148.59;10440352;28;20531;-68
2022/05/14 15:57:50;;;;;;;13.07;3.00;;;;;;;22.20;nan;104107.44;10427853;28;20044;-67
2022/05/14 16:02:55;;;;;;;19.55;3.22;;;;;;;21.79;nan;103920.75;10447559;28;20075;-67
2022/05/14 16:07:57;;;;;;;10.63;2.40;;;;;;;21.89;nan;103965.41;10433948;28;20099;-66
2022/05/14 16:18:20;;;;;;;13.82;2.88;;;;;;;21.91;nan;103952.09;10439294;28;20064;-66
2022/05/14 16:23:21;;;;;;;16.00;3.90;;;;;;;22.20;nan;104078.06;10433138;28;20053;-70
2022/05/14 16:28:23;;;;;;;19.35;3.70;;;;;;;22.11;nan;104030.75;10413739;28;20136;-70
2022/05/14 16:33:25;;;;;;;15.00;3.70;;;;;;;21.84;nan;103914.63;10434979;28;20055;-70
2022/05/14 16:38:27;;;;;;;13.52;3.45;;;;;;;21.81;nan;103892.31;10427846;28;20413;-70
2022/05/14 16:43:29;;;;;;;16.25;3.17;;;;;;;21.62;nan;103806.66;10425018;28;20512;-70
2022/05/14 16:48:33;;;;;;;19.10;3.50;;;;;;;21.41;nan;103721.81;10425693;28;20055;-70
2022/05/14 16:53:38;;;;;;;16.70;3.88;;;;;;;21.42;nan;103712.03;10419282;28;20045;-69
2022/05/14 16:58:41;;;;;;;18.42;3.40;;;;;;;21.40;nan;103703.13;10430196;28;20044;-70
2022/05/14 17:03:43;;;;;;;17.48;3.53;;;;;;;21.11;nan;103584.50;10443546;28;20083;-71
2022/05/14 17:08:45;;;;;;;16.60;4.38;;;;;;;21.05;nan;103551.50;10431525;28;20045;-72
2022/05/14 17:14:06;;;;;;;16.35;3.50;;;;;;;21.20;nan;103610.41;10436985;28;20053;-73
2022/05/14 17:19:08;;;;;;;19.75;4.90;;;;;;;20.91;nan;103485.59;10423968;28;20455;-71
2022/05/14 17:24:11;;;;;;;13.63;3.78;;;;;;;20.74;nan;103407.19;10431574;28;20511;-74
2022/05/14 17:29:12;;;;;;;15.40;3.60;;;;;;;20.40;nan;103265.56;10424134;28;20560;-69
2022/05/14 17:34:15;;;;;;;18.27;3.70;;;;;;;19.74;nan;102994.19;10445682;28;20044;-69
2022/05/14 17:44:38;;;;;;;13.30;3.22;;;;;;;18.79;nan;102612.25;10438126;28;20083;-68
2022/05/14 17:49:40;;;;;;;13.00;3.30;;;;;;;18.36;nan;102442.03;10410595;28;20080;-68
2022/05/14 17:54:41;;;;;;;14.30;2.70;;;;;;;17.97;nan;102284.28;10406888;28;20073;-68
2022/05/14 17:59:43;;;;;;;13.63;3.03;;;;;;;17.62;nan;102144.38;10406390;28;20037;-68
2022/05/14 18:04:45;;;;;;;10.90;3.10;;;;;;;17.38;nan;102053.25;10447767;28;20037;-68
2022/05/14 18:09:46;;;;;;;12.50;3.10;;;;;;;17.20;nan;101978.97;10418053;28;20435;-68
2022/05/14 18:14:48;;;;;;;14.32;3.03;;;;;;;16.84;nan;101842.81;10431036;28;20049;-68
2022/05/14 18:19:50;;;;;;;15.15;3.42;;;;;;;16.62;nan;101755.41;10431539;28;20080;-68
2022/05/14 18:24:52;;;;;;;12.55;3.28;;;;;;;16.40;nan;101670.63;10416436;28;20033;-68
2022/05/14 18:29:58;;;;;;;13.02;2.95;;;;;;;16.28;nan;101617.69;10421563;28;20047;-69
2022/05/14 18:35:02;;;;;;;19.17;3.53;;;;;;;16.05;nan;101536.53;10423790;28;20064;-68
2022/05/14 18:40:12;;;;;;;15.35;3.05;;;;;;;15.89;nan;101468.63;10429656;28;20648;-68
2022/05/14 18:45:14;;;;;;;15.25;3.13;;;;;;;15.74;nan;101414.81;10430992;28;20586;-68
2022/05/14 18:50:16;;;;;;;17.75;3.22;;;;;;;15.57;nan;101350.50;10429858;28;20256;-70
2022/05/14 18:55:18;;;;;;;16.55;3.13;;;;;;;15.49;nan;101320.53;10417195;28;20047;-68
2022/05/14 19:00:22;;;;;;;17.83;3.70;;;;;;;15.37;nan;101280.03;10439274;28;20040;-68
2022/05/14 19:10:49;;;;;;;21.63;3.83;;;;;;;14.93;nan;101113.63;10423434;28;20037;-68
2022/05/14 19:15:52;;;;;;;21.00;4.45;;;;;;;14.80;nan;101063.50;10447928;28;20045;-70
2022/05/14 19:20:54;;;;;;;22.35;4.32;;;;;;;14.67;nan;101014.25;10435097;28;20041;-69
2022/05/14 19:25:56;;;;;;;14.88;3.78;;;;;;;14.54;nan;100960.56;10448112;28;20068;-70
2022/05/14 19:31:03;;;;;;;23.00;3.75;;;;;;;14.32;nan;100886.75;10438945;28;20045;-70
2022/05/14 19:36:07;;;;;;;20.50;3.88;;;;;;;14.23;nan;100844.56;10444160;28;20041;-70
2022/05/14 19:41:17;;;;;;;16.05;4.00;;;;;;;14.16;nan;100827.00;10428691;28;20045;-70
2022/05/14 19:46:20;;;;;;;16.80;3.63;;;;;;;14.02;nan;100776.03;10435229;28;20068;-70
2022/05/14 19:51:22;;;;;;;23.73;4.50;;;;;;;13.84;nan;100709.31;10424267;28;20511;-70
2022/05/14 19:56:23;;;;;;;27.90;4.20;;;;;;;13.66;nan;100651.38;10454965;28;20396;-68
2022/05/14 20:01:27;;;;;;;26.88;5.07;;;;;;;13.52;nan;100585.59;10433247;28;20283;-69
2022/05/14 20:06:29;;;;;;;21.10;4.82;;;;;;;13.45;nan;100574.19;10440562;28;20045;-69
2022/05/14 20:11:33;;;;;;;17.35;4.32;;;;;;;13.34;nan;100534.69;10447823;28;20056;-68
2022/05/14 20:21:55;;;;;;;;;;;;;;;13.09;nan;100439.13;10422019;28;20053;-67
2022/05/14 20:26:56;;;;;;;21.60;4.80;;;;;;;12.98;nan;100394.41;10438027;28;19920;-66
2022/05/14 20:31:58;;;;;;;21.55;4.45;;;;;;;12.89;nan;100363.75;10446145;28;20036;-66
2022/05/14 20:37:00;;;;;;;25.88;4.70;;;;;;;12.80;nan;100331.34;10442188;28;20045;-66
2022/05/14 20:42:02;;;;;;;25.33;4.60;;;;;;;12.70;nan;100299.81;10442614;28;20045;-67
2022/05/14 20:47:04;;;;;;;17.92;4.75;;;;;;;12.65;nan;100288.41;10429153;28;20041;-66
2022/05/14 20:52:06;;;;;;;28.52;5.82;;;;;;;12.58;nan;100262.16;10423821;28;20171;-67
2022/05/14 20:57:08;;;;;;;20.67;4.53;;;;;;;12.46;nan;100218.38;10436933;28;20354;-67
2022/05/14 21:02:11;;;;;;;22.55;4.40;;;;;;;12.43;nan;100211.38;10444576;28;20052;-66
2022/05/14 21:07:14;;;;;;;23.33;4.63;;;;;;;12.36;nan;100199.13;10420006;28;20119;-66
2022/05/14 21:12:17;;;;;;;18.80;4.35;;;;;;;12.29;nan;100171.13;10435660;28;20053;-66
2022/05/14 21:17:19;;;;;;;20.27;4.05;;;;;;;12.22;nan;100144.00;10414623;28;20060;-67
2022/05/14 21:22:20;;;;;;;21.92;5.07;;;;;;;12.13;nan;100112.50;10429577;28;20481;-67
2022/05/14 21:27:22;;;;;;;22.50;5.10;;;;;;;12.08;nan;100102.00;10441632;28;20095;-66
2022/05/14 21:32:24;;;;;;;22.02;5.20;;;;;;;12.06;nan;100090.63;10434048;28;20071;-67
2022/05/14 21:37:40;;;;;;;27.48;6.25;;;;;;;12.01;nan;100081.91;10439050;28;20413;-66
2022/05/14 21:42:56;;;;;;;29.42;5.75;;;;;;;11.90;nan;100050.38;10436171;28;20044;-66
2022/05/14 21:47:58;;;;;;;24.02;5.07;;;;;;;11.80;nan;100002.28;10434169;28;20748;-67
2022/05/14 21:53:03;;;;;;;24.23;5.43;;;;;;;11.75;nan;99987.41;10430712;28;20065;-66
2022/05/14 21:58:05;;;;;;;19.30;4.97;;;;;;;11.68;nan;99969.06;10436243;28;20120;-66
2022/05/14 22:03:11;;;;;;;22.17;4.53;;;;;;;11.57;nan;99917.50;10447347;28;20049;-66
2022/05/14 22:08:14;;;;;;;28.45;6.63;;;;;;;11.50;nan;99903.53;10441050;28;20048;-67
2022/05/14 22:13:19;;;;;;;18.67;5.00;;;;;;;11.43;nan;99889.56;10427853;28;20412;-67
2022/05/14 22:18:21;;;;;;;16.08;4.25;;;;;;;11.32;nan;99844.16;10434889;28;20045;-66
2022/05/14 22:23:22;;;;;;;21.52;4.82;;;;;;;11.19;nan;99795.25;10426754;28;20543;-66
2022/05/14 22:28:24;;;;;;;24.65;5.45;;;;;;;11.03;nan;99742.84;10435865;28;20041;-66
2022/05/14 22:33:26;;;;;;;18.73;4.22;;;;;;;10.91;nan;99699.22;10450511;28;20128;-67
2022/05/14 22:38:27;;;;;;;17.75;4.35;;;;;;;10.77;nan;99644.25;10435024;28;20037;-66
2022/05/14 22:43:36;;;;;;;19.70;4.47;;;;;;;10.64;nan;99605.00;10421263;28;20083;-65
2022/05/14 22:48:41;;;;;;;20.15;4.47;;;;;;;10.53;nan;99560.53;10436447;28;20409;-67
2022/05/14 22:53:43;;;;;;;20.25;4.75;;;;;;;10.39;nan;99511.72;10437831;28;20053;-67
2022/05/14 22:58:48;;;;;;;23.23;5.70;;;;;;;10.26;nan;99465.50;10441159;28;20113;-67
2022/05/14 23:03:49;;;;;;;19.60;4.80;;;;;;;10.22;nan;99455.91;10451474;28;20084;-67
2022/05/14 23:08:53;;;;;;;24.13;5.03;;;;;;;10.05;nan;99382.72;10447350;28;20052;-67
2022/05/14 23:13:54;;;;;;;21.42;4.25;;;;;;;9.88;nan;99330.50;10433600;28;20072;-67
2022/05/14 23:18:56;;;;;;;26.35;5.40;;;;;;;9.71;nan;99262.56;10432156;28;20532;-68
2022/05/14 23:23:58;;;;;;;20.05;4.40;;;;;;;9.63;nan;99241.69;10420706;28;20037;-70
2022/05/14 23:28:59;;;;;;;22.48;5.13;;;;;;;9.50;nan;99190.34;10447971;28;20091;-68
2022/05/14 23:34:01;;;;;;;23.13;5.72;;;;;;;9.39;nan;99151.22;10445044;28;20137;-69
2022/05/14 23:39:06;;;;;;;24.10;5.85;;;;;;;9.32;nan;99124.25;10430669;28;20075;-68
2022/05/14 23:44:09;;;;;;;21.65;5.57;;;;;;;9.23;nan;99092.94;10433402;28;20202;-70
2022/05/14 23:49:11;;;;;;;17.65;5.20;;;;;;;9.16;nan;99067.75;10425742;28;20402;-69
2022/05/14 23:54:12;;;;;;;20.35;5.72;;;;;;;9.00;nan;99012.97;10425337;28;20053;-69
